createdAt,value
2022-11-14T17:01:41.222Z,36.00
2022-11-14T17:03:32.513Z,32.25
2022-11-14T17:05:23.083Z,35.25
2022-11-14T17:07:13.633Z,33.80
2022-11-14T17:09:04.006Z,28.40
2022-11-14T17:10:54.271Z,30.60
2022-11-14T17:12:44.696Z,29.80
2022-11-14T17:14:35.064Z,29.60
2022-11-14T17:16:25.643Z,29.00
2022-11-14T17:18:17.273Z,30.20
2022-11-14T17:20:08.598Z,30.00
2022-11-14T17:21:58.887Z,28.40
2022-11-14T17:24:01.346Z,27.80
2022-11-14T17:25:51.802Z,28.80
2022-11-14T17:27:42.084Z,26.60
2022-11-14T17:29:32.424Z,25.20
2022-11-14T17:31:22.442Z,27.00
2022-11-14T17:33:12.681Z,23.20
2022-11-14T17:35:02.964Z,26.40
2022-11-14T17:36:53.635Z,27.20
2022-11-14T17:38:43.685Z,24.60
2022-11-14T17:40:34.216Z,26.20
2022-11-14T17:42:24.396Z,24.60
2022-11-14T17:44:14.887Z,24.00
2022-11-14T17:46:05.671Z,25.80
2022-11-14T17:47:55.941Z,26.20
2022-11-14T17:49:46.326Z,24.00
2022-11-14T17:51:36.881Z,26.20
2022-11-14T17:53:27.104Z,23.60
2022-11-14T17:55:18.731Z,24.60
2022-11-14T17:57:09.092Z,24.20
2022-11-14T17:58:59.744Z,23.20
2022-11-14T18:00:50.528Z,24.20
2022-11-14T18:02:40.769Z,21.20
2022-11-14T18:04:31.894Z,22.60
2022-11-14T18:06:22.584Z,22.20
2022-11-14T18:08:12.901Z,23.60
2022-11-14T18:10:03.352Z,24.40
2022-11-14T18:11:53.897Z,24.80
2022-11-14T18:13:44.467Z,20.40
2022-11-14T18:15:34.636Z,22.80
2022-11-14T18:17:24.954Z,21.20
2022-11-14T18:19:15.192Z,24.00
2022-11-14T18:21:24.048Z,25.00
2022-11-14T18:23:14.313Z,23.40
2022-11-14T18:25:08.017Z,22.40
2022-11-14T18:26:59.224Z,24.40
2022-11-14T18:28:54.837Z,27.00
2022-11-14T18:30:55.410Z,36.20
2022-11-14T18:32:45.769Z,54.50
2022-11-14T18:34:40.754Z,37.75
2022-11-14T18:36:30.902Z,43.75
2022-11-14T18:38:20.956Z,54.75
2022-11-14T18:40:16.318Z,60.75
2022-11-14T18:42:07.476Z,65.75
2022-11-14T18:43:58.313Z,69.20
2022-11-14T18:45:48.581Z,67.40
2022-11-14T18:47:38.854Z,74.80
2022-11-14T18:49:29.145Z,78.60
2022-11-14T18:51:26.136Z,81.50
2022-11-14T18:53:16.311Z,96.75
2022-11-14T18:55:07.994Z,92.50
2022-11-14T18:56:58.027Z,94.50
2022-11-14T18:58:49.814Z,96.00
2022-11-14T19:00:40.318Z,102.00
2022-11-14T19:02:30.624Z,99.25
2022-11-14T19:04:21.147Z,95.75
2022-11-14T19:06:12.114Z,99.50
2022-11-14T19:08:02.097Z,107.25
2022-11-14T19:09:52.416Z,107.25
2022-11-14T19:12:01.627Z,112.50
2022-11-14T19:13:51.776Z,113.25
2022-11-14T19:15:42.888Z,117.25
2022-11-14T19:17:33.362Z,119.00
2022-11-14T19:19:23.894Z,118.75
2022-11-14T19:21:14.026Z,121.00
2022-11-14T19:23:04.182Z,114.00
2022-11-14T19:24:54.628Z,124.25
2022-11-14T19:26:44.897Z,123.50
2022-11-14T19:28:34.917Z,115.75
2022-11-14T19:30:25.186Z,122.50
2022-11-14T19:32:15.387Z,116.50
2022-11-14T19:34:06.022Z,114.00
2022-11-14T19:35:56.408Z,112.75
2022-11-14T19:37:46.999Z,115.00
2022-11-14T19:39:37.153Z,116.50
2022-11-14T19:41:28.261Z,112.25
2022-11-14T19:43:18.854Z,107.50
2022-11-14T19:45:09.733Z,114.25
2022-11-14T19:47:00.085Z,106.00
2022-11-14T19:48:50.529Z,97.25
2022-11-14T19:50:40.679Z,98.00
2022-11-14T19:52:30.549Z,95.25
2022-11-14T19:54:20.971Z,97.50
2022-11-14T19:56:13.200Z,93.25
2022-11-14T19:58:03.469Z,87.00
2022-11-14T19:59:53.780Z,84.75
2022-11-14T20:01:44.351Z,88.75
2022-11-14T20:03:35.386Z,87.50
2022-11-14T20:05:25.702Z,96.00
2022-11-14T20:07:15.786Z,84.75
2022-11-14T20:09:09.816Z,88.25
2022-11-14T20:11:01.740Z,97.75
2022-11-14T20:12:51.915Z,88.25
2022-11-14T20:14:41.904Z,93.75
2022-11-14T20:16:36.009Z,98.50
2022-11-14T20:18:28.772Z,98.25
2022-11-14T20:20:18.877Z,88.00
2022-11-14T20:22:09.231Z,88.00
2022-11-14T20:23:59.519Z,82.50
2022-11-14T20:25:52.893Z,97.75
2022-11-14T20:27:42.891Z,95.25
2022-11-14T20:29:33.538Z,95.00
2022-11-14T20:31:25.693Z,101.00
2022-11-14T20:33:16.061Z,95.50
2022-11-14T20:35:06.751Z,104.50
2022-11-14T20:37:10.421Z,101.75
2022-11-14T20:39:01.875Z,100.00
2022-11-14T20:40:55.535Z,101.00
2022-11-14T20:42:49.088Z,90.75
2022-11-14T20:44:39.426Z,95.75
2022-11-14T20:46:30.046Z,99.50
2022-11-14T20:48:20.361Z,100.75
2022-11-14T20:50:10.854Z,95.75
2022-11-14T20:52:04.830Z,97.50
2022-11-14T20:53:55.720Z,94.00
2022-11-14T20:55:52.637Z,94.25
2022-11-14T20:57:42.870Z,95.25
2022-11-14T20:59:33.676Z,85.75
2022-11-14T21:01:24.345Z,90.00
2022-11-14T21:03:14.659Z,89.25
2022-11-14T21:05:05.323Z,85.25
2022-11-14T21:06:55.799Z,95.00
2022-11-14T21:08:46.292Z,91.25
2022-11-14T21:10:45.807Z,93.75
2022-11-14T21:12:38.052Z,91.75
2022-11-14T21:14:29.040Z,87.25
2022-11-14T21:16:20.004Z,91.25
2022-11-14T21:18:11.157Z,94.75
2022-11-14T21:20:01.838Z,92.75
2022-11-14T21:21:52.842Z,103.75
2022-11-14T21:23:44.105Z,91.25
2022-11-14T21:25:35.641Z,89.00
2022-11-14T21:27:26.037Z,98.75
2022-11-14T21:29:16.980Z,89.75
2022-11-14T21:31:20.609Z,88.50
2022-11-14T21:33:11.248Z,87.00
2022-11-14T21:35:05.639Z,92.00
2022-11-14T21:36:59.093Z,102.50
2022-11-14T21:38:49.956Z,89.00
2022-11-14T21:40:41.801Z,84.00
2022-11-14T21:42:32.541Z,84.00
2022-11-14T21:44:23.351Z,83.50
2022-11-14T21:46:17.362Z,85.50
2022-11-14T21:48:10.559Z,78.50
2022-11-14T21:50:02.498Z,87.25
2022-11-14T21:51:53.279Z,72.00
2022-11-14T21:53:44.497Z,69.80
2022-11-14T21:55:34.804Z,62.00
2022-11-14T21:57:25.485Z,66.80
2022-11-14T21:59:19.005Z,60.25
2022-11-14T22:01:10.072Z,47.00
2022-11-14T22:03:19.211Z,64.00
2022-11-14T22:05:10.113Z,54.75
2022-11-14T22:07:07.824Z,59.75
2022-11-14T22:08:58.573Z,52.25
2022-11-14T22:10:49.017Z,55.75
2022-11-14T22:12:39.711Z,52.50
2022-11-14T22:14:30.563Z,54.00
2022-11-14T22:16:21.542Z,50.75
2022-11-14T22:18:13.458Z,48.25
2022-11-14T22:20:04.187Z,48.75
2022-11-14T22:21:54.624Z,53.50
2022-11-14T22:23:44.923Z,50.50
2022-11-14T22:25:35.249Z,38.75
2022-11-14T22:27:26.323Z,46.75
2022-11-14T22:29:16.281Z,42.50
2022-11-14T22:31:15.891Z,40.00
2022-11-14T22:33:06.282Z,38.75
2022-11-14T22:34:56.743Z,42.25
2022-11-14T22:36:47.144Z,54.00
2022-11-14T22:38:37.551Z,58.50
2022-11-14T22:40:27.958Z,59.00
2022-11-14T22:42:17.883Z,62.50
2022-11-14T22:44:08.192Z,59.75
2022-11-14T22:45:59.242Z,59.25
2022-11-14T22:47:49.253Z,117.00
2022-11-14T22:49:39.833Z,83.00
2022-11-14T22:51:30.301Z,75.00
2022-11-14T22:53:21.418Z,69.60
2022-11-14T22:55:17.681Z,70.40
2022-11-14T22:57:08.387Z,74.00
2022-11-14T22:58:59.718Z,78.20
2022-11-14T23:00:50.030Z,73.75
2022-11-14T23:02:40.182Z,73.50
2022-11-14T23:04:30.652Z,76.75
2022-11-14T23:06:21.753Z,80.00
2022-11-14T23:08:14.908Z,75.00
2022-11-14T23:10:05.382Z,82.75
2022-11-14T23:11:55.731Z,78.75
2022-11-14T23:13:47.220Z,84.50
2022-11-14T23:15:37.428Z,85.25
2022-11-14T23:17:27.823Z,81.25
2022-11-14T23:19:18.104Z,78.20
2022-11-14T23:21:16.066Z,75.80
2022-11-14T23:23:06.026Z,80.25
2022-11-14T23:24:56.623Z,76.60
2022-11-14T23:26:46.654Z,75.60
2022-11-14T23:28:36.624Z,74.00
2022-11-14T23:30:26.874Z,74.20
2022-11-14T23:32:17.118Z,70.40
2022-11-14T23:34:07.396Z,69.00
